Pagrindinis puslapis
METAR-TAF:

METAR-TAF

Oro uostai :

Malė, Maldyvai

platuma: 04-12N, ilguma: 073-32E, Aukštis: 2 m

Dabartinis oras

Ataskaita buvo paskelbta 51 minutes, ne 06:00 UTC
Vėjas 4 kt iš Šiaurės Vakarų
Temperatūra 32°C
Drėgmė 71%
Slėgis 1011 hPa
Matomumas 10 km arba daugiau
Mažai debesys ne aukštis 1800 ft, aukštai iškilę kamuoliniai debesys.

METAR: VRMM 100600Z 32004KT 9999 FEW018TCU 32/26 Q1011 NOSIG

Laikas: 11:51 (06:51 UTC)

Prognozė

Ataskaita buvo paskelbta 1 valandą ir 51 minutes, ne 05:00 UTC
Prognozė galioja nuo 10 metu 06 UTC su 11 metu 12 UTC
Vėjas 6 kt iš Vakarų/Šiaurės Vakarų
Matomumas 10 km arba daugiau
Mažai debesys ne aukštis 1800 ft, aukštai iškilę kamuoliniai debesys.
Laikinai
nuo 10 metu 06 UTC su 10 metu 12 UTC
Mažai debesys ne aukštis 1900 ft, Liūtiniai kamuoliniai debesys.

TAF: VRMM 100500Z 1006/1112 29006KT 9999 FEW018TCU TEMPO 1006/1012 FEW019CB

Orai ataskaitas ir orų prognozės (METAR, TAF).

turimą stotys yra geltonos ir raudonos taškus žemėlapyje.

Perkelti pele per norėdami pamatyti stoties vardą.

Tada spustelėkite, norėdami matyti oro stebėjimo ir prognozės.

Norėdami pakeisti žemėlapį: spustelėkite ant žalios mygtukų su juodo kryžiaus žemyn,; žalią mygtuką su brūkšneliu, jei norite nutolinti; arba žalių rodyklių gretimoms žemėlapius.


METAR-TAF: